createdAt,value
2018-09-08T00:00:21.316Z,1013.77
2018-09-08T00:01:21.901Z,1013.94
2018-09-08T00:02:22.484Z,1013.83
2018-09-08T00:03:23.073Z,1013.81
2018-09-08T00:04:23.657Z,1013.79
2018-09-08T00:05:24.244Z,1013.77
2018-09-08T00:06:24.876Z,1013.94
2018-09-08T00:07:25.452Z,1013.89
2018-09-08T00:08:26.036Z,1013.79
2018-09-08T00:09:26.624Z,1013.77
2018-09-08T00:10:27.263Z,1013.91
2018-09-08T00:11:27.897Z,1013.89
2018-09-08T00:12:28.533Z,1013.85
2018-09-08T00:13:29.121Z,1013.82
2018-09-08T00:14:29.702Z,1013.80
2018-09-08T00:15:30.283Z,1013.86
2018-09-08T00:16:30.877Z,1013.77
2018-09-08T00:17:31.508Z,1013.64
2018-09-08T00:19:16.609Z,1013.76
2018-09-08T00:20:17.198Z,1013.80
2018-09-08T00:21:17.784Z,1013.86
2018-09-08T00:22:18.374Z,1013.82
2018-09-08T00:23:19.005Z,1013.76
2018-09-08T00:24:19.592Z,1013.72
2018-09-08T00:25:20.179Z,1013.72
2018-09-08T00:26:20.765Z,1013.71
2018-09-08T00:27:21.394Z,1013.83
2018-09-08T00:28:22.026Z,1013.83
2018-09-08T00:29:22.616Z,1013.86
2018-09-08T00:30:23.200Z,1013.79
2018-09-08T00:31:23.786Z,1013.74
2018-09-08T00:32:24.415Z,1013.79
2018-09-08T00:33:24.993Z,1013.83
2018-09-08T00:34:25.578Z,1013.85
2018-09-08T00:35:26.261Z,1013.95
2018-09-08T00:36:26.845Z,1013.78
2018-09-08T00:37:27.431Z,1013.80
2018-09-08T00:38:28.032Z,1013.90
2018-09-08T00:39:28.603Z,1013.92
2018-09-08T00:40:29.184Z,1013.86
2018-09-08T00:41:29.772Z,1013.88
2018-09-08T00:42:30.433Z,1013.80
2018-09-08T00:43:30.985Z,1013.76
2018-09-08T00:45:16.085Z,1013.89
2018-09-08T00:46:16.670Z,1013.77
2018-09-08T00:47:17.253Z,1013.79
2018-09-08T00:48:17.938Z,1013.76
2018-09-08T00:49:18.521Z,1013.79
2018-09-08T00:50:19.110Z,1013.73
2018-09-08T00:51:19.695Z,1013.74
2018-09-08T00:52:20.281Z,1013.78
2018-09-08T00:53:20.917Z,1013.69
2018-09-08T00:54:21.498Z,1013.72
2018-09-08T00:55:22.086Z,1013.69
2018-09-08T00:56:22.676Z,1013.73
2018-09-08T00:57:23.258Z,1013.54
2018-09-08T00:58:23.844Z,1013.66
2018-09-08T00:59:24.428Z,1013.73
2018-09-08T01:00:25.014Z,1013.68
2018-09-08T01:01:25.599Z,1013.71
2018-09-08T01:02:26.187Z,1013.67
2018-09-08T01:03:26.816Z,1013.72
2018-09-08T01:04:27.404Z,1013.65
2018-09-08T01:05:27.993Z,1013.70
2018-09-08T01:06:28.576Z,1013.71
2018-09-08T01:07:29.155Z,1013.75
2018-09-08T01:08:29.738Z,1013.67
2018-09-08T01:09:30.327Z,1013.66
2018-09-08T01:11:15.481Z,1013.69
2018-09-08T01:12:16.159Z,1013.59
2018-09-08T01:13:16.749Z,1013.61
2018-09-08T01:14:17.335Z,1013.56
2018-09-08T01:15:17.927Z,1013.58
2018-09-08T01:16:18.510Z,1013.62
2018-09-08T01:17:19.093Z,1013.47
2018-09-08T01:18:19.726Z,1013.46
2018-09-08T01:19:20.312Z,1013.50
2018-09-08T01:20:20.891Z,1013.50
2018-09-08T01:21:21.482Z,1013.47
2018-09-08T01:22:22.071Z,1013.43
2018-09-08T01:23:22.709Z,1013.50
2018-09-08T01:24:23.293Z,1013.57
2018-09-08T01:25:23.880Z,1013.62
2018-09-08T01:26:24.509Z,1013.60
2018-09-08T01:27:25.095Z,1013.59
2018-09-08T01:28:25.681Z,1013.62
2018-09-08T01:29:26.263Z,1013.64
2018-09-08T01:30:26.850Z,1013.64
2018-09-08T01:31:27.435Z,1013.61
2018-09-08T01:32:28.069Z,1013.65
2018-09-08T01:33:28.650Z,1013.63
2018-09-08T01:34:29.233Z,1013.70
2018-09-08T01:35:29.867Z,1013.72
2018-09-08T01:37:14.966Z,1013.74
2018-09-08T01:38:15.554Z,1013.74
2018-09-08T01:39:16.140Z,1013.77
2018-09-08T01:40:16.779Z,1013.76
2018-09-08T01:41:17.411Z,1013.86
2018-09-08T01:42:18.048Z,1013.80
2018-09-08T01:43:18.642Z,1013.83
2018-09-08T01:44:19.234Z,1013.78
2018-09-08T01:45:19.867Z,1013.87
2018-09-08T01:46:20.453Z,1013.88
2018-09-08T01:47:21.042Z,1013.82
2018-09-08T01:48:21.674Z,1013.82
2018-09-08T01:49:22.303Z,1013.75
2018-09-08T01:50:22.888Z,1013.77
2018-09-08T01:51:23.471Z,1013.79
2018-09-08T01:52:24.059Z,1013.75
2018-09-08T01:53:24.644Z,1013.83
2018-09-08T01:54:25.227Z,1013.87
2018-09-08T01:55:25.808Z,1013.76
2018-09-08T01:56:26.396Z,1013.79
2018-09-08T01:57:27.032Z,1013.79
2018-09-08T01:58:27.612Z,1013.79
2018-09-08T01:59:28.349Z,1013.78
2018-09-08T02:00:28.973Z,1013.83
2018-09-08T02:01:29.563Z,1013.78
2018-09-08T02:03:14.711Z,1013.80
2018-09-08T02:04:15.296Z,1013.81
2018-09-08T02:05:15.879Z,1013.82
2018-09-08T02:06:16.462Z,1013.85
2018-09-08T02:07:17.050Z,1013.78
2018-09-08T02:08:17.630Z,1013.88
2018-09-08T02:09:18.218Z,1013.86
2018-09-08T02:10:18.807Z,1013.91
2018-09-08T02:11:19.390Z,1013.87
2018-09-08T02:12:19.977Z,1013.93
2018-09-08T02:13:20.564Z,1013.88
2018-09-08T02:14:21.147Z,1013.90
2018-09-08T02:15:21.783Z,1013.82
2018-09-08T02:16:22.370Z,1013.96
2018-09-08T02:17:23.041Z,1013.92
2018-09-08T02:18:23.624Z,1013.91
2018-09-08T02:19:24.217Z,1013.87
2018-09-08T02:20:24.801Z,1013.91
2018-09-08T02:21:25.377Z,1014.00
2018-09-08T02:22:25.968Z,1013.97
2018-09-08T02:23:26.603Z,1013.90
2018-09-08T02:24:27.179Z,1013.94
2018-09-08T02:25:27.831Z,1013.94
2018-09-08T02:26:28.353Z,1013.89
2018-09-08T02:27:28.940Z,1013.99
2018-09-08T02:29:14.437Z,1013.98
2018-09-08T02:30:15.024Z,1014.00
2018-09-08T02:31:15.608Z,1014.05
2018-09-08T02:32:16.191Z,1013.98
2018-09-08T02:33:16.780Z,1013.95
2018-09-08T02:34:17.455Z,1013.99
2018-09-08T02:35:18.095Z,1014.04
2018-09-08T02:36:18.678Z,1014.01
2018-09-08T02:37:19.261Z,1014.02
2018-09-08T02:38:19.842Z,1014.02
2018-09-08T02:39:20.479Z,1013.96
2018-09-08T02:40:21.113Z,1013.96
2018-09-08T02:41:21.697Z,1014.05
2018-09-08T02:42:22.284Z,1014.02
2018-09-08T02:43:22.865Z,1014.00
2018-09-08T02:44:23.497Z,1013.98
2018-09-08T02:45:24.037Z,1014.05
2018-09-08T02:46:24.669Z,1014.05
2018-09-08T02:47:25.250Z,1014.05
2018-09-08T02:48:25.839Z,1014.07
2018-09-08T02:49:26.481Z,1014.12
2018-09-08T02:50:27.104Z,1014.03
2018-09-08T02:51:27.693Z,1014.06
2018-09-08T02:52:28.316Z,1014.06
2018-09-08T02:53:28.906Z,1014.09
2018-09-08T02:55:14.004Z,1014.06
2018-09-08T02:56:14.595Z,1014.11
2018-09-08T02:57:15.179Z,1014.16
2018-09-08T02:58:15.816Z,1014.06
2018-09-08T02:59:16.403Z,1014.20
2018-09-08T03:00:16.995Z,1014.22
2018-09-08T03:01:17.575Z,1014.24
2018-09-08T03:02:18.211Z,1014.21
2018-09-08T03:03:18.796Z,1014.25
2018-09-08T03:04:19.383Z,1014.24
2018-09-08T03:05:19.971Z,1014.33
2018-09-08T03:06:20.554Z,1014.26
2018-09-08T03:07:21.183Z,1014.30
2018-09-08T03:08:21.769Z,1014.24
2018-09-08T03:09:22.397Z,1014.23
2018-09-08T03:10:22.983Z,1014.26
2018-09-08T03:11:23.571Z,1014.23
2018-09-08T03:12:24.156Z,1014.23
2018-09-08T03:13:24.787Z,1014.21
2018-09-08T03:14:25.374Z,1014.25
2018-09-08T03:15:25.962Z,1014.23
2018-09-08T03:16:26.542Z,1014.25
2018-09-08T03:17:27.123Z,1014.27
2018-09-08T03:18:27.754Z,1014.25
2018-09-08T03:19:28.344Z,1014.28
2018-09-08T03:21:13.493Z,1014.21
2018-09-08T03:22:14.076Z,1014.25
2018-09-08T03:23:14.659Z,1014.27
2018-09-08T03:24:15.243Z,1014.29
2018-09-08T03:25:15.827Z,1014.20
2018-09-08T03:26:16.412Z,1014.13
2018-09-08T03:27:16.998Z,1014.12
2018-09-08T03:28:17.632Z,1014.19
2018-09-08T03:29:18.217Z,1014.10
2018-09-08T03:30:18.804Z,1014.12
2018-09-08T03:31:19.439Z,1014.14
2018-09-08T03:32:20.067Z,1014.23
2018-09-08T03:33:20.654Z,1014.21
2018-09-08T03:34:21.237Z,1014.21
2018-09-08T03:35:21.819Z,1014.19
2018-09-08T03:36:22.402Z,1014.20
2018-09-08T03:37:22.991Z,1014.26
2018-09-08T03:38:23.617Z,1014.24
2018-09-08T03:39:24.247Z,1014.24
2018-09-08T03:40:24.833Z,1014.23
2018-09-08T03:41:25.418Z,1014.24
2018-09-08T03:42:25.999Z,1014.29
2018-09-08T03:43:26.580Z,1014.28
2018-09-08T03:44:27.158Z,1014.39
2018-09-08T03:45:27.744Z,1014.35
2018-09-08T03:47:12.894Z,1014.35
2018-09-08T03:48:13.491Z,1014.32
2018-09-08T03:49:14.112Z,1014.36
2018-09-08T03:50:14.697Z,1014.31
2018-09-08T03:51:15.332Z,1014.37
2018-09-08T03:52:15.918Z,1014.30
2018-09-08T03:53:16.501Z,1014.36
2018-09-08T03:54:17.089Z,1014.38
2018-09-08T03:55:17.675Z,1014.36
2018-09-08T03:56:18.261Z,1014.43
2018-09-08T03:57:18.896Z,1014.45
2018-09-08T03:58:19.477Z,1014.45
2018-09-08T03:59:20.113Z,1014.50
2018-09-08T04:00:20.694Z,1014.53
2018-09-08T04:01:21.278Z,1014.52
2018-09-08T04:02:21.860Z,1014.53
2018-09-08T04:03:22.445Z,1014.53
2018-09-08T04:04:23.029Z,1014.57
2018-09-08T04:05:23.613Z,1014.51
2018-09-08T04:06:24.201Z,1014.48
2018-09-08T04:07:24.831Z,1014.45
2018-09-08T04:08:25.418Z,1014.50
2018-09-08T04:09:26.058Z,1014.47
2018-09-08T04:10:26.633Z,1014.47
2018-09-08T04:11:27.222Z,1014.52
2018-09-08T04:13:12.322Z,1014.51
2018-09-08T04:14:12.953Z,1014.49
2018-09-08T04:15:13.539Z,1014.46
2018-09-08T04:16:14.138Z,1014.51
2018-09-08T04:17:14.760Z,1014.53
2018-09-08T04:18:15.526Z,1014.58
2018-09-08T04:19:15.929Z,1014.57
2018-09-08T04:20:16.512Z,1014.60
2018-09-08T04:21:17.099Z,1014.58
2018-09-08T04:22:17.680Z,1014.60
2018-09-08T04:23:18.267Z,1014.71
2018-09-08T04:24:18.854Z,1014.73
2018-09-08T04:25:19.488Z,1014.75
2018-09-08T04:26:20.075Z,1014.73
2018-09-08T04:27:20.652Z,1014.81
2018-09-08T04:28:21.240Z,1014.75
2018-09-08T04:31:25.020Z,1014.69
2018-09-08T04:33:27.230Z,1014.72
2018-09-08T04:35:29.385Z,1014.78
2018-09-08T04:36:29.965Z,1014.74
2018-09-08T04:37:30.576Z,1014.76
2018-09-08T04:39:15.503Z,1014.84
2018-09-08T04:40:16.082Z,1014.86
2018-09-08T04:41:16.657Z,1014.94
2018-09-08T04:42:17.234Z,1014.94
2018-09-08T04:43:17.852Z,1014.92
2018-09-08T04:44:18.428Z,1014.88
2018-09-08T04:45:19.009Z,1014.89
2018-09-08T04:46:19.590Z,1015.01
2018-09-08T04:47:20.171Z,1014.94
2018-09-08T04:48:20.797Z,1015.07
2018-09-08T04:49:21.493Z,1015.00
2018-09-08T04:50:22.009Z,1015.01
2018-09-08T04:51:22.633Z,1015.08
2018-09-08T04:52:23.213Z,1015.07
2018-09-08T04:53:23.785Z,1015.10
2018-09-08T04:54:24.366Z,1015.15
2018-09-08T04:55:24.947Z,1015.14
2018-09-08T04:56:25.620Z,1015.14
2018-09-08T04:57:26.191Z,1015.14
2018-09-08T04:58:26.770Z,1015.19
2018-09-08T04:59:27.347Z,1015.18
2018-09-08T05:00:27.925Z,1015.16
2018-09-08T05:01:28.513Z,1015.13
2018-09-08T05:02:29.145Z,1015.14
2018-09-08T05:03:29.664Z,1015.16
2018-09-08T05:05:14.642Z,1015.13
2018-09-08T05:06:15.223Z,1015.11
2018-09-08T05:07:15.804Z,1015.16
2018-09-08T05:08:16.440Z,1015.14
2018-09-08T05:09:17.016Z,1015.15
2018-09-08T05:10:17.598Z,1015.12
2018-09-08T05:11:18.176Z,1015.11
2018-09-08T05:12:18.756Z,1015.09
2018-09-08T05:13:19.338Z,1015.13
2018-09-08T05:16:24.333Z,1015.16
2018-09-08T05:17:24.970Z,1015.19
2018-09-08T05:21:44.174Z,1015.08
2018-09-08T05:22:44.762Z,1015.09
2018-09-08T05:32:51.837Z,1015.18
2018-09-08T05:33:52.417Z,1015.17
2018-09-08T05:34:53.026Z,1015.21
2018-09-08T05:35:53.577Z,1015.28
2018-09-08T05:36:54.154Z,1015.19
2018-09-08T05:37:54.738Z,1015.28
2018-09-08T05:38:55.314Z,1015.23
2018-09-08T05:39:55.896Z,1015.27
2018-09-08T05:40:56.476Z,1015.28
2018-09-08T05:41:57.057Z,1015.18
2018-09-08T05:42:57.694Z,1015.24
2018-09-08T05:43:58.218Z,1015.31
2018-09-08T05:44:58.795Z,1015.25
2018-09-08T05:45:59.425Z,1015.28
2018-09-08T05:47:00.003Z,1015.28
2018-09-08T05:48:00.625Z,1015.30
2018-09-08T05:49:01.210Z,1015.28
2018-09-08T05:50:01.787Z,1015.28
2018-09-08T05:51:02.413Z,1015.33
2018-09-08T05:52:03.034Z,1015.37
2018-09-08T05:53:03.614Z,1015.29
2018-09-08T05:54:04.195Z,1015.30
2018-09-08T05:55:04.821Z,1015.24
2018-09-08T05:56:05.398Z,1015.21
2018-09-08T05:57:05.982Z,1015.23
2018-09-08T05:58:50.955Z,1015.23
2018-09-08T05:59:51.537Z,1015.26
2018-09-08T06:00:52.118Z,1015.33
2018-09-08T06:01:52.699Z,1015.29
2018-09-08T06:02:53.279Z,1015.36
2018-09-08T06:03:53.863Z,1015.32
2018-09-08T06:04:54.489Z,1015.28
2018-09-08T06:05:55.124Z,1015.31
2018-09-08T06:06:55.703Z,1015.37
2018-09-08T06:07:56.278Z,1015.29
2018-09-08T06:08:56.909Z,1015.31
2018-09-08T06:10:11.315Z,1015.27
2018-09-08T06:11:11.834Z,1015.27
2018-09-08T06:12:12.418Z,1015.35
2018-09-08T06:13:13.045Z,1015.34
2018-09-08T06:14:13.675Z,1015.28
2018-09-08T06:15:14.258Z,1015.26
2018-09-08T06:16:28.697Z,1015.39
2018-09-08T06:17:29.286Z,1015.35
2018-09-08T06:18:29.858Z,1015.46
2018-09-08T06:19:30.480Z,1015.36
2018-09-08T06:20:31.020Z,1015.46
2018-09-08T06:21:31.601Z,1015.47
2018-09-08T06:22:32.182Z,1015.48
2018-09-08T06:23:32.775Z,1015.40
2018-09-08T06:24:33.528Z,1015.51
2018-09-08T06:25:34.077Z,1015.44
2018-09-08T06:26:34.595Z,1015.56
2018-09-08T06:27:35.224Z,1015.56
2018-09-08T06:28:35.832Z,1015.59
2018-09-08T06:29:36.382Z,1015.65
2018-09-08T06:30:36.960Z,1015.65
2018-09-08T06:31:37.586Z,1015.62
2018-09-08T06:32:38.177Z,1015.64
2018-09-08T06:33:38.782Z,1015.64
2018-09-08T06:34:39.312Z,1015.61
2018-09-08T06:35:39.892Z,1015.75
2018-09-08T06:36:40.472Z,1015.66
2018-09-08T06:37:41.046Z,1015.72
2018-09-08T06:38:41.650Z,1015.78
2018-09-08T06:39:42.198Z,1015.80
2018-09-08T06:40:42.782Z,1015.76
2018-09-08T06:42:27.713Z,1015.76
2018-09-08T06:43:28.293Z,1015.79
2018-09-08T06:44:28.875Z,1015.73
2018-09-08T06:45:29.507Z,1015.77
2018-09-08T06:46:30.086Z,1015.88
2018-09-08T06:47:30.667Z,1015.85
2018-09-08T06:48:31.297Z,1015.90
2018-09-08T06:49:31.874Z,1015.98
2018-09-08T06:50:32.453Z,1015.96
2018-09-08T06:51:33.033Z,1015.92
2018-09-08T06:52:33.660Z,1016.03
2018-09-08T06:53:34.238Z,1015.97
2018-09-08T06:54:34.817Z,1016.00
2018-09-08T06:55:35.397Z,1016.03
2018-09-08T06:56:35.972Z,1016.03
2018-09-08T06:57:36.549Z,1016.02
2018-09-08T06:58:37.130Z,1016.12
2018-09-08T06:59:37.709Z,1016.06
2018-09-08T07:00:43.537Z,1016.09
2018-09-08T07:01:44.113Z,1016.09
2018-09-08T07:02:44.690Z,1016.06
2018-09-08T07:03:45.263Z,1016.06
2018-09-08T07:04:45.848Z,1016.06
2018-09-08T07:05:46.474Z,1016.09
2018-09-08T07:06:47.152Z,1016.10
2018-09-08T07:08:32.077Z,1016.12
2018-09-08T07:09:32.706Z,1016.15
2018-09-08T07:10:33.287Z,1016.12
2018-09-08T07:11:33.918Z,1016.13
2018-09-08T07:12:34.498Z,1016.14
2018-09-08T07:13:35.078Z,1016.17
2018-09-08T07:14:35.659Z,1016.25
2018-09-08T07:15:36.236Z,1016.17
2018-09-08T07:16:36.815Z,1016.12
2018-09-08T07:17:37.394Z,1016.30
2018-09-08T07:18:37.972Z,1016.26
2018-09-08T07:19:38.557Z,1016.24
2018-09-08T07:20:39.130Z,1016.18
2018-09-08T07:21:39.710Z,1016.12
2018-09-08T07:22:40.285Z,1016.17
2018-09-08T07:23:40.860Z,1016.13
2018-09-08T07:24:41.493Z,1016.13
2018-09-08T07:25:42.072Z,1016.13
2018-09-08T07:26:42.643Z,1016.10
2018-09-08T07:27:43.226Z,1016.20
2018-09-08T07:28:43.808Z,1016.27
2018-09-08T07:29:44.382Z,1016.24
2018-09-08T07:30:44.960Z,1016.19
2018-09-08T07:31:45.534Z,1016.22
2018-09-08T07:32:46.166Z,1016.18
2018-09-08T07:34:31.254Z,1016.16
2018-09-08T07:35:31.829Z,1016.27
2018-09-08T07:36:32.411Z,1016.31
2018-09-08T07:37:32.991Z,1016.25
2018-09-08T07:38:33.578Z,1016.27
2018-09-08T07:39:34.155Z,1016.33
2018-09-08T07:40:34.738Z,1016.24
2018-09-08T07:41:35.318Z,1016.21
2018-09-08T07:42:35.900Z,1016.21
2018-09-08T07:43:36.525Z,1016.22
2018-09-08T07:44:37.159Z,1016.23
2018-09-08T07:45:37.738Z,1016.18
2018-09-08T07:46:38.316Z,1016.20
2018-09-08T07:47:38.907Z,1016.21
2018-09-08T07:48:39.519Z,1016.18
2018-09-08T07:49:40.143Z,1016.25
2018-09-08T07:50:40.725Z,1016.17
2018-09-08T07:51:41.396Z,1016.18
2018-09-08T07:52:41.964Z,1016.20
2018-09-08T07:53:42.706Z,1016.20
2018-09-08T07:54:43.174Z,1016.25
2018-09-08T07:55:43.747Z,1016.19
2018-09-08T07:56:44.348Z,1016.22
2018-09-08T07:57:44.898Z,1016.16
2018-09-08T07:58:45.479Z,1016.16
2018-09-08T08:00:30.459Z,1016.10
2018-09-08T08:01:31.040Z,1016.19
2018-09-08T08:02:31.619Z,1016.19
2018-09-08T08:03:32.201Z,1016.18
2018-09-08T08:04:32.782Z,1016.19
2018-09-08T08:05:33.414Z,1016.21
2018-09-08T08:06:34.053Z,1016.21
2018-09-08T08:07:34.673Z,1016.19
2018-09-08T08:08:35.305Z,1016.22
2018-09-08T08:09:35.884Z,1016.29
2018-09-08T08:10:36.461Z,1016.29
2018-09-08T08:11:37.040Z,1016.30
2018-09-08T08:12:37.621Z,1016.36
2018-09-08T08:13:38.252Z,1016.41
2018-09-08T08:14:38.859Z,1016.33
2018-09-08T08:15:39.449Z,1016.37
2018-09-08T08:16:40.034Z,1016.38
2018-09-08T08:17:40.615Z,1016.33
2018-09-08T08:18:41.194Z,1016.34
2018-09-08T08:19:41.773Z,1016.32
2018-09-08T08:20:42.354Z,1016.42
2018-09-08T08:21:42.932Z,1016.45
2018-09-08T08:22:43.508Z,1016.34
2018-09-08T08:23:44.085Z,1016.44
2018-09-08T08:24:44.672Z,1016.39
2018-09-08T08:26:29.599Z,1016.41
2018-09-08T08:27:30.226Z,1016.35
2018-09-08T08:28:30.858Z,1016.36
2018-09-08T08:29:31.443Z,1016.34
2018-09-08T08:30:32.017Z,1016.35
2018-09-08T08:31:32.648Z,1016.26
2018-09-08T08:32:33.228Z,1016.27
2018-09-08T08:33:33.808Z,1016.28
2018-09-08T08:34:34.387Z,1016.27
2018-09-08T08:35:35.014Z,1016.25
2018-09-08T08:36:35.596Z,1016.25
2018-09-08T08:37:36.171Z,1016.25
2018-09-08T08:38:36.748Z,1016.31
2018-09-08T08:39:37.330Z,1016.33
2018-09-08T08:40:37.908Z,1016.27
2018-09-08T08:41:38.481Z,1016.26
2018-09-08T08:42:39.066Z,1016.30
2018-09-08T08:43:39.642Z,1016.30
2018-09-08T08:44:40.222Z,1016.25
2018-09-08T08:45:40.801Z,1016.30
2018-09-08T08:46:41.380Z,1016.35
2018-09-08T08:47:41.957Z,1016.43
2018-09-08T08:48:42.585Z,1016.40
2018-09-08T08:49:43.203Z,1016.45
2018-09-08T08:50:43.790Z,1016.33
2018-09-08T08:52:28.824Z,1016.39
2018-09-08T08:53:29.352Z,1016.47
2018-09-08T08:54:29.933Z,1016.41
2018-09-08T08:55:30.518Z,1016.46
2018-09-08T08:56:31.096Z,1016.46
2018-09-08T08:57:31.677Z,1016.46
2018-09-08T08:58:32.258Z,1016.48
2018-09-08T08:59:32.840Z,1016.53
2018-09-08T09:00:33.417Z,1016.58
2018-09-08T09:01:34.001Z,1016.60
2018-09-08T09:02:34.581Z,1016.62
2018-09-08T09:03:35.166Z,1016.60
2018-09-08T09:04:35.792Z,1016.66
2018-09-08T09:05:36.375Z,1016.65
2018-09-08T09:06:36.997Z,1016.75
2018-09-08T09:07:37.913Z,1016.80
2018-09-08T09:08:38.712Z,1016.80
2018-09-08T09:09:38.882Z,1016.74
2018-09-08T09:10:39.452Z,1016.76
2018-09-08T09:11:40.187Z,1016.87
2018-09-08T09:12:40.611Z,1016.84
2018-09-08T09:13:41.188Z,1016.89
2018-09-08T09:14:41.768Z,1016.85
2018-09-08T09:15:42.348Z,1016.86
2018-09-08T09:16:42.933Z,1016.82
2018-09-08T09:18:27.864Z,1016.93
2018-09-08T09:19:28.448Z,1016.90
2018-09-08T09:20:29.028Z,1016.89
2018-09-08T09:21:29.611Z,1016.98
2018-09-08T09:22:30.196Z,1016.93
2018-09-08T09:23:30.776Z,1016.89
2018-09-08T09:29:25.323Z,1016.84
2018-09-08T09:36:54.335Z,1016.83
2018-09-08T09:37:54.921Z,1016.72
2018-09-08T09:38:55.504Z,1016.87
2018-09-08T09:39:56.088Z,1016.85
2018-09-08T09:40:56.673Z,1016.85
2018-09-08T09:41:57.308Z,1016.95
2018-09-08T09:42:57.896Z,1017.02
2018-09-08T09:43:58.482Z,1016.98
2018-09-08T09:44:59.110Z,1017.04
2018-09-08T09:45:59.697Z,1017.00
2018-09-08T09:47:00.334Z,1016.99
2018-09-08T09:48:00.916Z,1017.05
2018-09-08T09:49:01.554Z,1017.07
2018-09-08T09:50:02.189Z,1017.04
2018-09-08T09:54:30.865Z,1017.15
2018-09-08T09:56:33.025Z,1017.09
2018-09-08T09:57:33.610Z,1017.10
2018-09-08T09:58:34.195Z,1017.16
2018-09-08T09:59:34.785Z,1017.21
2018-09-08T10:00:35.425Z,1017.14
2018-09-08T10:01:36.865Z,1017.16
2018-09-08T10:02:37.453Z,1017.08
2018-09-08T10:03:38.041Z,1017.17
2018-09-08T10:04:38.635Z,1017.16
2018-09-08T10:05:39.273Z,1017.16
2018-09-08T10:06:39.969Z,1017.08
2018-09-08T10:07:40.549Z,1017.13
2018-09-08T10:08:41.142Z,1017.20
2018-09-08T10:09:41.724Z,1017.17
2018-09-08T10:10:42.318Z,1017.16
2018-09-08T10:11:42.910Z,1017.20
2018-09-08T10:12:43.496Z,1017.09
2018-09-08T10:13:44.089Z,1017.17
2018-09-08T10:14:44.678Z,1017.11
2018-09-08T10:15:45.262Z,1017.10
2018-09-08T10:16:45.848Z,1017.14
2018-09-08T10:17:46.435Z,1017.17
2018-09-08T10:18:47.030Z,1017.19
2018-09-08T10:20:32.185Z,1017.14
2018-09-08T10:21:32.828Z,1017.13
2018-09-08T10:22:33.421Z,1017.16
2018-09-08T10:23:34.112Z,1017.18
2018-09-08T10:24:34.606Z,1017.27
2018-09-08T10:25:35.251Z,1017.22
2018-09-08T10:26:35.842Z,1017.27
2018-09-08T10:27:36.432Z,1017.17
2018-09-08T10:28:37.024Z,1017.29
2018-09-08T10:29:37.618Z,1017.22
2018-09-08T10:30:38.251Z,1017.34
2018-09-08T10:31:38.847Z,1017.31
2018-09-08T10:32:39.437Z,1017.23
2018-09-08T10:33:40.031Z,1017.27
2018-09-08T10:34:40.656Z,1017.23
2018-09-08T10:35:41.210Z,1017.28
2018-09-08T10:39:14.851Z,1017.36
2018-09-08T10:40:15.471Z,1017.32
2018-09-08T10:41:16.044Z,1017.34
2018-09-08T10:42:16.688Z,1017.42
2018-09-08T10:43:17.282Z,1017.39
2018-09-08T10:44:17.877Z,1017.41
2018-09-08T10:45:18.474Z,1017.47
2018-09-08T10:46:19.069Z,1017.46
2018-09-08T10:47:19.666Z,1017.55
2018-09-08T10:48:20.256Z,1017.48
2018-09-08T10:49:20.855Z,1017.53
2018-09-08T10:50:21.449Z,1017.53
2018-09-08T10:51:22.045Z,1017.63
2018-09-08T10:52:22.640Z,1017.53
2018-09-08T10:53:23.283Z,1017.58
2018-09-08T10:54:23.875Z,1017.52
2018-09-08T10:55:24.473Z,1017.52
2018-09-08T10:56:25.065Z,1017.54
2018-09-08T10:57:25.709Z,1017.60
2018-09-08T10:58:26.310Z,1017.58
2018-09-08T10:59:26.907Z,1017.62
2018-09-08T11:00:27.505Z,1017.48
2018-09-08T11:01:28.162Z,1017.43
2018-09-08T11:03:30.282Z,1017.49
2018-09-08T11:05:15.449Z,1017.47
2018-09-08T11:06:16.048Z,1017.46
2018-09-08T11:07:16.649Z,1017.59
2018-09-08T11:08:17.247Z,1017.41
2018-09-08T11:09:17.846Z,1017.54
2018-09-08T11:10:18.444Z,1017.60
2018-09-08T11:11:19.094Z,1017.61
2018-09-08T11:12:19.697Z,1017.58
2018-09-08T11:13:20.294Z,1017.51
2018-09-08T11:14:20.892Z,1017.56
2018-09-08T11:15:21.495Z,1017.56
2018-09-08T11:16:22.143Z,1017.54
2018-09-08T11:17:22.741Z,1017.60
2018-09-08T11:18:23.340Z,1017.55
2018-09-08T11:19:23.940Z,1017.63
2018-09-08T11:20:24.532Z,1017.55
2018-09-08T11:21:25.133Z,1017.56
2018-09-08T11:22:25.784Z,1017.56
2018-09-08T11:23:26.380Z,1017.51
2018-09-08T11:24:26.985Z,1017.53
2018-09-08T11:25:27.585Z,1017.57
2018-09-08T11:26:28.183Z,1017.51
2018-09-08T11:27:28.786Z,1017.53
2018-09-08T11:28:29.378Z,1017.59
2018-09-08T11:29:30.181Z,1017.60
2018-09-08T11:31:15.758Z,1017.67
2018-09-08T11:32:16.351Z,1017.62
2018-09-08T11:33:16.951Z,1017.68
2018-09-08T11:34:17.555Z,1017.81
2018-09-08T11:35:18.160Z,1017.69
2018-09-08T11:36:18.864Z,1017.66
2018-09-08T11:37:19.467Z,1017.55
2018-09-08T11:38:20.168Z,1017.56
2018-09-08T11:39:20.720Z,1017.59
2018-09-08T11:40:21.314Z,1017.61
2018-09-08T11:41:21.922Z,1017.59
2018-09-08T11:42:22.522Z,1017.69
2018-09-08T11:43:23.124Z,1017.59
2018-09-08T11:45:31.581Z,1017.58
2018-09-08T11:46:32.174Z,1017.75
2018-09-08T11:47:32.781Z,1017.59
2018-09-08T11:48:33.382Z,1017.63
2018-09-08T11:49:34.040Z,1017.50
2018-09-08T11:50:34.678Z,1017.56
2018-09-08T11:51:35.281Z,1017.49
2018-09-08T11:52:35.878Z,1017.60
2018-09-08T11:53:36.480Z,1017.48
2018-09-08T11:54:37.080Z,1017.40
2018-09-08T11:55:37.704Z,1017.56
2018-09-08T11:57:22.861Z,1017.47
2018-09-08T11:58:23.462Z,1017.38
2018-09-08T11:59:24.092Z,1017.53
2018-09-08T12:00:24.718Z,1017.50
2018-09-08T12:01:25.321Z,1017.39
2018-09-08T12:02:25.924Z,1017.42
2018-09-08T12:03:26.527Z,1017.44
2018-09-08T12:04:27.127Z,1017.47
2018-09-08T12:05:27.732Z,1017.59
2018-09-08T12:06:28.435Z,1017.44
2018-09-08T12:07:28.990Z,1017.40
2018-09-08T12:08:29.588Z,1017.35
2018-09-08T12:09:30.190Z,1017.62
2018-09-08T12:10:30.797Z,1017.43
2018-09-08T12:11:31.395Z,1017.44
2018-09-08T12:12:31.990Z,1017.35
2018-09-08T12:13:32.590Z,1017.52
2018-09-08T12:14:33.239Z,1017.54
2018-09-08T12:15:33.832Z,1017.48
2018-09-08T12:16:34.436Z,1017.55
2018-09-08T12:17:35.037Z,1017.48
2018-09-08T12:18:35.632Z,1017.54
2018-09-08T12:19:36.230Z,1017.51
2018-09-08T12:20:36.830Z,1017.46
2018-09-08T12:21:37.436Z,1017.43
2018-09-08T12:23:22.598Z,1017.53
2018-09-08T12:24:23.249Z,1017.47
2018-09-08T12:25:23.847Z,1017.56
2018-09-08T12:26:24.449Z,1017.49
2018-09-08T12:27:25.050Z,1017.55
2018-09-08T12:28:25.696Z,1017.50
2018-09-08T12:29:26.299Z,1017.55
2018-09-08T12:30:26.962Z,1017.59
2018-09-08T12:31:27.547Z,1017.52
2018-09-08T12:32:28.182Z,1017.54
2018-09-08T12:33:28.748Z,1017.52
2018-09-08T12:34:29.346Z,1017.64
2018-09-08T12:35:29.945Z,1017.65
2018-09-08T12:36:30.542Z,1017.55
2018-09-08T12:37:31.138Z,1017.59
2018-09-08T12:38:31.964Z,1017.67
2018-09-08T12:39:32.539Z,1017.54
2018-09-08T12:40:33.137Z,1017.61
2018-09-08T12:41:33.735Z,1017.53
2018-09-08T12:42:34.385Z,1017.57
2018-09-08T12:43:34.985Z,1017.42
2018-09-08T12:44:35.575Z,1017.43
2018-09-08T12:45:36.213Z,1017.60
2018-09-08T12:46:36.856Z,1017.48
2018-09-08T12:47:37.458Z,1017.51
2018-09-08T12:49:22.576Z,1017.52
2018-09-08T12:50:23.172Z,1017.64
2018-09-08T12:51:23.772Z,1017.58
2018-09-08T12:52:24.379Z,1017.43
2018-09-08T12:53:25.037Z,1017.49
2018-09-08T12:54:25.617Z,1017.45
2018-09-08T12:55:26.264Z,1017.39
2018-09-08T12:56:26.863Z,1017.50
2018-09-08T12:57:27.463Z,1017.64
2018-09-08T12:58:28.111Z,1017.46
2018-09-08T12:59:28.799Z,1017.47
2018-09-08T13:00:29.309Z,1017.53
2018-09-08T13:01:29.908Z,1017.50
2018-09-08T13:02:30.504Z,1017.68
2018-09-08T13:03:31.099Z,1017.73
2018-09-08T13:04:31.693Z,1017.58
2018-09-08T13:05:32.296Z,1017.61
2018-09-08T13:06:32.946Z,1017.56
2018-09-08T13:07:33.582Z,1017.61
2018-09-08T13:08:34.138Z,1017.54
2018-09-08T13:09:34.737Z,1017.58
2018-09-08T13:10:35.334Z,1017.62
2018-09-08T13:11:35.931Z,1017.59